V2ANU SAEZ-SOCA
Flight info
| Callsign | V2ANU |
|---|---|
| Flight time | 5h 37m |
| Altitude | 39000 |
| Route | LANDA2A LANDA UN785 GEMSU UP526 VAS UM544 GRD DCT ENSUK DCT UTPOM DCT VALAS DCT OROVO DCT MCP |
| Aircraft | B738/M-SDE2E3FGHIRWXY/LB1 |
Departure
| Time | 2026-04-26 13:54 |
|---|---|
| Airport | Ezeiza International Airport - Ministro Pistarini (SAEZ) |
Arrival
| Time | 2026-04-26 19:31 |
|---|---|
| Airport | Cayenne – Félix Eboué Airport (SOCA) |
| Time | Latitude | Longitude | Altitude | Speed | Heading |
|---|---|---|---|---|---|
| 2026-04-26 13:19 | -34.81677 | -58.53651 | 65 ft | 0 kts | 128° |
| 2026-04-26 13:37 | -34.81676 | -58.53651 | 74 ft | 1 kts | 128° |
| 2026-04-26 13:37 | -34.81662 | -58.53674 | 64 ft | 4 kts | 126° |
| 2026-04-26 13:38 | -34.81646 | -58.53701 | 67 ft | 4 kts | 122° |
| 2026-04-26 13:38 | -34.81633 | -58.53729 | 64 ft | 4 kts | 111° |
| 2026-04-26 13:38 | -34.81628 | -58.53758 | 74 ft | 4 kts | 67° |
| 2026-04-26 13:38 | -34.81632 | -58.53767 | 74 ft | 1 kts | 38° |
| 2026-04-26 13:42 | -34.81629 | -58.53768 | 74 ft | 1 kts | 6° |
| 2026-04-26 13:42 | -34.81627 | -58.53777 | 69 ft | 1 kts | 271° |
| 2026-04-26 13:42 | -34.81635 | -58.53778 | 60 ft | 1 kts | 176° |
| 2026-04-26 13:43 | -34.81658 | -58.53769 | 67 ft | 7 kts | 161° |
| 2026-04-26 13:43 | -34.81718 | -58.53736 | 71 ft | 11 kts | 155° |
| 2026-04-26 13:43 | -34.81784 | -58.53698 | 71 ft | 10 kts | 155° |
| 2026-04-26 13:43 | -34.81849 | -58.53661 | 72 ft | 10 kts | 155° |
| 2026-04-26 13:44 | -34.81904 | -58.53613 | 65 ft | 10 kts | 122° |
| 2026-04-26 13:44 | -34.81925 | -58.53531 | 69 ft | 12 kts | 103° |
| 2026-04-26 13:44 | -34.81952 | -58.53391 | 66 ft | 18 kts | 103° |
| 2026-04-26 13:44 | -34.81982 | -58.53241 | 65 ft | 18 kts | 103° |
| 2026-04-26 13:45 | -34.82011 | -58.53097 | 74 ft | 17 kts | 104° |
| 2026-04-26 13:45 | -34.82038 | -58.52960 | 83 ft | 17 kts | 104° |
| 2026-04-26 13:45 | -34.82058 | -58.52867 | 74 ft | 1 kts | 104° |
| 2026-04-26 13:45 | -34.82063 | -58.52839 | 77 ft | 7 kts | 104° |
| 2026-04-26 13:46 | -34.82072 | -58.52793 | 76 ft | 0 kts | 103° |
| 2026-04-26 13:48 | -34.82077 | -58.52768 | 76 ft | 7 kts | 103° |
| 2026-04-26 13:48 | -34.82090 | -58.52700 | 75 ft | 9 kts | 103° |
| 2026-04-26 13:48 | -34.82104 | -58.52625 | 75 ft | 9 kts | 103° |
| 2026-04-26 13:49 | -34.82118 | -58.52552 | 75 ft | 9 kts | 103° |
| 2026-04-26 13:49 | -34.82133 | -58.52482 | 75 ft | 8 kts | 104° |
| 2026-04-26 13:49 | -34.82147 | -58.52413 | 74 ft | 8 kts | 104° |
| 2026-04-26 13:49 | -34.82161 | -58.52343 | 73 ft | 10 kts | 103° |
| 2026-04-26 13:50 | -34.82178 | -58.52256 | 74 ft | 11 kts | 104° |
| 2026-04-26 13:50 | -34.82196 | -58.52168 | 66 ft | 11 kts | 104° |
| 2026-04-26 13:50 | -34.82213 | -58.52083 | 71 ft | 10 kts | 104° |
| 2026-04-26 13:50 | -34.82230 | -58.52001 | 71 ft | 10 kts | 104° |
| 2026-04-26 13:51 | -34.82247 | -58.51920 | 74 ft | 10 kts | 104° |
| 2026-04-26 13:51 | -34.82263 | -58.51841 | 74 ft | 9 kts | 104° |
| 2026-04-26 13:51 | -34.82291 | -58.51785 | 67 ft | 8 kts | 160° |
| 2026-04-26 13:51 | -34.82342 | -58.51791 | 75 ft | 7 kts | 193° |
| 2026-04-26 13:52 | -34.82392 | -58.51806 | 63 ft | 7 kts | 193° |
| 2026-04-26 13:52 | -34.82440 | -58.51820 | 70 ft | 7 kts | 194° |
| 2026-04-26 13:52 | -34.82486 | -58.51833 | 85 ft | 7 kts | 193° |
| 2026-04-26 13:52 | -34.82527 | -58.51855 | 81 ft | 6 kts | 242° |
| 2026-04-26 13:53 | -34.82522 | -58.51905 | 81 ft | 7 kts | 281° |
| 2026-04-26 13:53 | -34.82486 | -58.52116 | 73 ft | 60 kts | 281° |
| 2026-04-26 13:53 | -34.82348 | -58.52898 | 83 ft | 126 kts | 283° |
| 2026-04-26 13:53 | -34.82112 | -58.54083 | 405 ft | 151 kts | 284° |
| 2026-04-26 13:54 | -34.81860 | -58.55363 | 1144 ft | 157 kts | 278° |
| 2026-04-26 13:54 | -34.81667 | -58.56642 | 2086 ft | 146 kts | 271° |
| 2026-04-26 13:54 | -34.81611 | -58.57439 | 2670 ft | 143 kts | 271° |
| 2026-04-26 13:55 | -34.81927 | -58.59893 | 3578 ft | 180 kts | 230° |
| 2026-04-26 13:55 | -34.82526 | -58.60647 | 3688 ft | 195 kts | 232° |
| 2026-04-26 13:55 | -34.84768 | -58.64022 | 4488 ft | 236 kts | 234° |
| 2026-04-26 13:56 | -34.86110 | -58.65254 | 5319 ft | 249 kts | 211° |
| 2026-04-26 13:56 | -34.87820 | -58.65834 | 6055 ft | 267 kts | 194° |
| 2026-04-26 13:56 | -34.89717 | -58.65694 | 6742 ft | 288 kts | 173° |
| 2026-04-26 13:56 | -34.91583 | -58.64620 | 7482 ft | 309 kts | 148° |
| 2026-04-26 13:57 | -34.93000 | -58.62602 | 8183 ft | 327 kts | 120° |
| 2026-04-26 13:57 | -34.93662 | -58.59899 | 8928 ft | 334 kts | 91° |
| 2026-04-26 13:57 | -34.93342 | -58.57133 | 9689 ft | 327 kts | 60° |
| 2026-04-26 13:57 | -34.92082 | -58.54926 | 10313 ft | 314 kts | 30° |
| 2026-04-26 13:58 | -34.90166 | -58.53726 | 10522 ft | 310 kts | 1° |
| 2026-04-26 13:58 | -34.87990 | -58.53496 | 10758 ft | 322 kts | 351° |
| 2026-04-26 13:58 | -34.85716 | -58.53509 | 11287 ft | 333 kts | 350° |
| 2026-04-26 13:58 | -34.83386 | -58.53521 | 12007 ft | 339 kts | 350° |
| 2026-04-26 13:59 | -34.81014 | -58.53541 | 12819 ft | 342 kts | 348° |
| 2026-04-26 13:59 | -34.78624 | -58.53633 | 13618 ft | 346 kts | 347° |
| 2026-04-26 13:59 | -34.76194 | -58.53753 | 14339 ft | 351 kts | 347° |
| 2026-04-26 14:00 | -34.68668 | -58.54119 | 16404 ft | 371 kts | 346° |
| 2026-04-26 14:00 | -34.66074 | -58.54235 | 17124 ft | 376 kts | 345° |
| 2026-04-26 14:00 | -34.64292 | -58.54313 | 17601 ft | 380 kts | 345° |
| 2026-04-26 14:01 | -34.60788 | -58.54464 | 18466 ft | 387 kts | 345° |
| 2026-04-26 14:01 | -34.58071 | -58.54578 | 19100 ft | 391 kts | 345° |
| 2026-04-26 14:01 | -34.55313 | -58.54692 | 19757 ft | 395 kts | 344° |
| 2026-04-26 14:01 | -34.52559 | -58.54807 | 20372 ft | 399 kts | 344° |
| 2026-04-26 14:02 | -34.49769 | -58.54924 | 20970 ft | 403 kts | 343° |
| 2026-04-26 14:02 | -34.46947 | -58.55042 | 21560 ft | 407 kts | 343° |
| 2026-04-26 14:02 | -34.44139 | -58.55160 | 22141 ft | 411 kts | 343° |
| 2026-04-26 14:02 | -34.41239 | -58.55281 | 22724 ft | 415 kts | 343° |
| 2026-04-26 14:03 | -34.38314 | -58.55403 | 23283 ft | 419 kts | 342° |
| 2026-04-26 14:03 | -34.35448 | -58.55522 | 23763 ft | 423 kts | 342° |
| 2026-04-26 14:03 | -34.32476 | -58.55645 | 24244 ft | 425 kts | 343° |
| 2026-04-26 14:03 | -34.29514 | -58.55767 | 24630 ft | 429 kts | 344° |
| 2026-04-26 14:04 | -34.26493 | -58.55892 | 25083 ft | 432 kts | 344° |
| 2026-04-26 14:04 | -34.23487 | -58.56015 | 25581 ft | 434 kts | 344° |
| 2026-04-26 14:04 | -34.20465 | -58.56137 | 26071 ft | 435 kts | 344° |
| 2026-04-26 14:04 | -34.17428 | -58.56262 | 26517 ft | 437 kts | 344° |
| 2026-04-26 14:05 | -34.14370 | -58.56390 | 26938 ft | 440 kts | 344° |
| 2026-04-26 14:05 | -34.11353 | -58.56518 | 27314 ft | 443 kts | 344° |
| 2026-04-26 14:05 | -34.08198 | -58.56666 | 27631 ft | 445 kts | 345° |
| 2026-04-26 14:05 | -34.05093 | -58.56817 | 28051 ft | 446 kts | 345° |
| 2026-04-26 14:06 | -34.02032 | -58.56966 | 28437 ft | 448 kts | 345° |
| 2026-04-26 14:06 | -33.98889 | -58.57118 | 28734 ft | 452 kts | 345° |
| 2026-04-26 14:06 | -33.95725 | -58.57270 | 29097 ft | 454 kts | 346° |
| 2026-04-26 14:06 | -33.92570 | -58.57418 | 29501 ft | 455 kts | 346° |
| 2026-04-26 14:07 | -33.89400 | -58.57566 | 29961 ft | 455 kts | 346° |
| 2026-04-26 14:07 | -33.86247 | -58.57704 | 30399 ft | 451 kts | 346° |
| 2026-04-26 14:07 | -33.83116 | -58.57835 | 30957 ft | 447 kts | 345° |
| 2026-04-26 14:07 | -33.80019 | -58.57965 | 31415 ft | 444 kts | 345° |
| 2026-04-26 14:08 | -33.76923 | -58.58100 | 31787 ft | 444 kts | 345° |
| 2026-04-26 14:08 | -33.73882 | -58.58235 | 32150 ft | 444 kts | 345° |
| 2026-04-26 14:08 | -33.70816 | -58.58369 | 32580 ft | 442 kts | 344° |
| 2026-04-26 14:08 | -33.67751 | -58.58502 | 33045 ft | 439 kts | 344° |
| 2026-04-26 14:09 | -33.64675 | -58.58635 | 33404 ft | 438 kts | 344° |
| 2026-04-26 14:09 | -33.61632 | -58.58770 | 33691 ft | 439 kts | 344° |
| 2026-04-26 14:09 | -33.58565 | -58.58908 | 33975 ft | 440 kts | 344° |
| 2026-04-26 14:09 | -33.55499 | -58.59043 | 34294 ft | 439 kts | 344° |
| 2026-04-26 14:10 | -33.52445 | -58.59175 | 34620 ft | 438 kts | 344° |
| 2026-04-26 14:10 | -33.49394 | -58.59307 | 34880 ft | 439 kts | 344° |
| 2026-04-26 14:10 | -33.46368 | -58.59440 | 35126 ft | 440 kts | 344° |
| 2026-04-26 14:10 | -33.43314 | -58.59573 | 35403 ft | 440 kts | 344° |
| 2026-04-26 14:11 | -33.37202 | -58.59837 | 35943 ft | 439 kts | 344° |
| 2026-04-26 14:11 | -33.34150 | -58.59969 | 36206 ft | 439 kts | 344° |
| 2026-04-26 14:11 | -33.31083 | -58.60102 | 36485 ft | 439 kts | 344° |
| 2026-04-26 14:12 | -33.28032 | -58.60234 | 36770 ft | 438 kts | 344° |
| 2026-04-26 14:12 | -33.24977 | -58.60366 | 37038 ft | 438 kts | 344° |
| 2026-04-26 14:12 | -33.21962 | -58.60496 | 37296 ft | 438 kts | 344° |
| 2026-04-26 14:12 | -33.18874 | -58.60629 | 37483 ft | 438 kts | 343° |
| 2026-04-26 14:13 | -33.12867 | -58.60885 | 38179 ft | 433 kts | 343° |
| 2026-04-26 14:13 | -33.09844 | -58.61017 | 38394 ft | 434 kts | 343° |
| 2026-04-26 14:13 | -33.06825 | -58.61150 | 38580 ft | 435 kts | 343° |
| 2026-04-26 14:14 | -33.03816 | -58.61274 | 38763 ft | 437 kts | 345° |
| 2026-04-26 14:14 | -33.00716 | -58.61072 | 38921 ft | 453 kts | 353° |
| 2026-04-26 14:14 | -32.97555 | -58.60313 | 38928 ft | 474 kts | 2° |
| 2026-04-26 14:15 | -32.91247 | -58.57979 | 38927 ft | 474 kts | 4° |
| 2026-04-26 14:15 | -32.85035 | -58.55612 | 38936 ft | 469 kts | 3° |
| 2026-04-26 14:16 | -32.78800 | -58.53306 | 38947 ft | 465 kts | 2° |
| 2026-04-26 14:16 | -32.72612 | -58.51061 | 38951 ft | 464 kts | 2° |
| 2026-04-26 14:17 | -32.66502 | -58.48852 | 38946 ft | 462 kts | 2° |
| 2026-04-26 14:17 | -32.60333 | -58.46621 | 38945 ft | 462 kts | 2° |
| 2026-04-26 14:18 | -32.54182 | -58.44402 | 38959 ft | 462 kts | 2° |
| 2026-04-26 14:18 | -32.48051 | -58.42191 | 38954 ft | 464 kts | 2° |
| 2026-04-26 14:19 | -32.41901 | -58.39973 | 38957 ft | 464 kts | 2° |
| 2026-04-26 14:19 | -32.35681 | -58.37733 | 38954 ft | 465 kts | 2° |
| 2026-04-26 14:20 | -32.29473 | -58.35501 | 38960 ft | 466 kts | 2° |
| 2026-04-26 14:20 | -32.23260 | -58.33262 | 38959 ft | 467 kts | 2° |
| 2026-04-26 14:21 | -32.17039 | -58.31020 | 38960 ft | 467 kts | 2° |
| 2026-04-26 14:21 | -32.10845 | -58.28790 | 38967 ft | 467 kts | 2° |
| 2026-04-26 14:22 | -32.04621 | -58.26553 | 38960 ft | 467 kts | 2° |
| 2026-04-26 14:22 | -31.98408 | -58.24323 | 38961 ft | 466 kts | 2° |
| 2026-04-26 14:23 | -31.92233 | -58.22110 | 38919 ft | 465 kts | 1° |
| 2026-04-26 14:23 | -31.86055 | -58.19898 | 38938 ft | 464 kts | 1° |
| 2026-04-26 14:24 | -31.79905 | -58.17701 | 38968 ft | 463 kts | 1° |
| 2026-04-26 14:24 | -31.73689 | -58.15486 | 38970 ft | 463 kts | 1° |
| 2026-04-26 14:25 | -31.67560 | -58.13303 | 38916 ft | 463 kts | 1° |
| 2026-04-26 14:25 | -31.61391 | -58.11107 | 38956 ft | 462 kts | 1° |
| 2026-04-26 14:26 | -31.55245 | -58.08924 | 38973 ft | 462 kts | 1° |
| 2026-04-26 14:26 | -31.49085 | -58.06740 | 38969 ft | 462 kts | 1° |
| 2026-04-26 14:27 | -31.42984 | -58.04580 | 38976 ft | 463 kts | 1° |
| 2026-04-26 14:27 | -31.36757 | -58.02376 | 38961 ft | 462 kts | 0° |
| 2026-04-26 14:28 | -31.30605 | -58.00202 | 38965 ft | 461 kts | 0° |
| 2026-04-26 14:28 | -31.24493 | -57.98045 | 38970 ft | 461 kts | 0° |
| 2026-04-26 14:29 | -31.18336 | -57.95877 | 38966 ft | 462 kts | 0° |
| 2026-04-26 14:29 | -31.12192 | -57.93714 | 38958 ft | 460 kts | 0° |
| 2026-04-26 14:30 | -31.06060 | -57.91555 | 38962 ft | 458 kts | 359° |
| 2026-04-26 14:30 | -31.03025 | -57.90484 | 39186 ft | 453 kts | 359° |
| 2026-04-26 14:30 | -31.00049 | -57.89437 | 39405 ft | 451 kts | 359° |
| 2026-04-26 14:30 | -30.97045 | -57.88385 | 39632 ft | 450 kts | 359° |
| 2026-04-26 14:31 | -30.94051 | -57.87339 | 39861 ft | 448 kts | 359° |
| 2026-04-26 14:31 | -30.91080 | -57.86301 | 39985 ft | 449 kts | 360° |
| 2026-04-26 14:31 | -30.88044 | -57.85247 | 39939 ft | 452 kts | 359° |
| 2026-04-26 14:32 | -30.82002 | -57.83143 | 39969 ft | 459 kts | 360° |
| 2026-04-26 14:32 | -30.75848 | -57.80989 | 39988 ft | 462 kts | 0° |
| 2026-04-26 14:33 | -30.69678 | -57.78834 | 39987 ft | 465 kts | 0° |
| 2026-04-26 14:33 | -30.63460 | -57.76658 | 39978 ft | 466 kts | 0° |
| 2026-04-26 14:34 | -30.57286 | -57.74487 | 39978 ft | 463 kts | 0° |
| 2026-04-26 14:34 | -30.51155 | -57.72337 | 39978 ft | 462 kts | 0° |
| 2026-04-26 14:35 | -30.45017 | -57.70190 | 39979 ft | 461 kts | 360° |
| 2026-04-26 14:35 | -30.38855 | -57.68038 | 39980 ft | 460 kts | 360° |
| 2026-04-26 14:36 | -30.32732 | -57.65901 | 39969 ft | 458 kts | 360° |
| 2026-04-26 14:36 | -30.26660 | -57.63937 | 39972 ft | 442 kts | 353° |
| 2026-04-26 14:36 | -30.23680 | -57.63593 | 39976 ft | 419 kts | 344° |
| 2026-04-26 14:37 | -30.20769 | -57.63547 | 39986 ft | 417 kts | 343° |
| 2026-04-26 14:37 | -30.14998 | -57.63486 | 39984 ft | 417 kts | 343° |
| 2026-04-26 14:38 | -30.09197 | -57.63394 | 39922 ft | 417 kts | 344° |
| 2026-04-26 14:38 | -30.03385 | -57.63271 | 39975 ft | 417 kts | 344° |
| 2026-04-26 14:39 | -29.97571 | -57.63141 | 39996 ft | 418 kts | 345° |
| 2026-04-26 14:39 | -29.91740 | -57.63011 | 39986 ft | 420 kts | 345° |
| 2026-04-26 14:40 | -29.85898 | -57.62879 | 39948 ft | 422 kts | 345° |
| 2026-04-26 14:40 | -29.80022 | -57.62745 | 39977 ft | 423 kts | 345° |
| 2026-04-26 14:41 | -29.74114 | -57.62612 | 39986 ft | 424 kts | 345° |
| 2026-04-26 14:41 | -29.69199 | -57.62500 | 39986 ft | 425 kts | 345° |
| 2026-04-26 14:42 | -29.62309 | -57.62344 | 39987 ft | 426 kts | 345° |
| 2026-04-26 14:42 | -29.56379 | -57.62210 | 39979 ft | 426 kts | 345° |
| 2026-04-26 14:43 | -29.51448 | -57.62098 | 39979 ft | 425 kts | 345° |
| 2026-04-26 14:43 | -29.45531 | -57.61965 | 39988 ft | 425 kts | 345° |
| 2026-04-26 14:44 | -29.39685 | -57.61834 | 39977 ft | 424 kts | 345° |
| 2026-04-26 14:44 | -29.33750 | -57.61701 | 39969 ft | 422 kts | 345° |
| 2026-04-26 14:45 | -29.27869 | -57.61570 | 39981 ft | 422 kts | 345° |
| 2026-04-26 14:45 | -29.21985 | -57.61437 | 39982 ft | 422 kts | 345° |
| 2026-04-26 14:46 | -29.16134 | -57.61297 | 39980 ft | 423 kts | 345° |
| 2026-04-26 14:46 | -29.10229 | -57.61153 | 39965 ft | 423 kts | 346° |
| 2026-04-26 14:47 | -29.04349 | -57.61010 | 39978 ft | 423 kts | 346° |
| 2026-04-26 14:47 | -28.98457 | -57.60869 | 39986 ft | 424 kts | 346° |
| 2026-04-26 14:48 | -28.92542 | -57.60728 | 39981 ft | 425 kts | 346° |
| 2026-04-26 14:48 | -28.86620 | -57.60586 | 39940 ft | 426 kts | 346° |
| 2026-04-26 14:49 | -28.80733 | -57.60444 | 39972 ft | 426 kts | 346° |
| 2026-04-26 14:49 | -28.74795 | -57.60303 | 39984 ft | 427 kts | 346° |
| 2026-04-26 14:50 | -28.68844 | -57.60161 | 39982 ft | 428 kts | 346° |
| 2026-04-26 14:50 | -28.62886 | -57.60018 | 39923 ft | 428 kts | 346° |
| 2026-04-26 14:51 | -28.56989 | -57.59875 | 39966 ft | 427 kts | 346° |
| 2026-04-26 14:51 | -28.51044 | -57.59734 | 39986 ft | 427 kts | 346° |
| 2026-04-26 14:52 | -28.45064 | -57.59593 | 39979 ft | 428 kts | 346° |
| 2026-04-26 14:52 | -28.39103 | -57.59451 | 39980 ft | 428 kts | 346° |
| 2026-04-26 14:53 | -28.33178 | -57.59310 | 39968 ft | 428 kts | 347° |
| 2026-04-26 14:53 | -28.27222 | -57.59169 | 39976 ft | 428 kts | 347° |
| 2026-04-26 14:54 | -28.21258 | -57.59028 | 39975 ft | 428 kts | 347° |
| 2026-04-26 14:54 | -28.15274 | -57.58833 | 39979 ft | 430 kts | 347° |
| 2026-04-26 14:55 | -28.09293 | -57.58568 | 39960 ft | 430 kts | 348° |
| 2026-04-26 14:55 | -28.03353 | -57.58306 | 39975 ft | 429 kts | 348° |
| 2026-04-26 14:56 | -27.97369 | -57.58053 | 39980 ft | 429 kts | 348° |
| 2026-04-26 14:56 | -27.91402 | -57.57805 | 39990 ft | 429 kts | 348° |
| 2026-04-26 14:57 | -27.85424 | -57.57557 | 39958 ft | 429 kts | 348° |
| 2026-04-26 14:57 | -27.79501 | -57.57312 | 39969 ft | 429 kts | 348° |
| 2026-04-26 14:58 | -27.73559 | -57.57066 | 39982 ft | 429 kts | 348° |
| 2026-04-26 14:58 | -27.67563 | -57.56818 | 39982 ft | 429 kts | 348° |
| 2026-04-26 14:59 | -27.61588 | -57.56571 | 39936 ft | 430 kts | 349° |
| 2026-04-26 14:59 | -27.55608 | -57.56323 | 39971 ft | 429 kts | 349° |
| 2026-04-26 15:00 | -27.49664 | -57.56079 | 39983 ft | 430 kts | 349° |
| 2026-04-26 15:00 | -27.43678 | -57.55833 | 39983 ft | 430 kts | 349° |
| 2026-04-26 15:01 | -27.37682 | -57.55631 | 39987 ft | 430 kts | 348° |
| 2026-04-26 15:01 | -27.31721 | -57.55477 | 39977 ft | 430 kts | 349° |
| 2026-04-26 15:02 | -27.25771 | -57.55320 | 39981 ft | 430 kts | 349° |
| 2026-04-26 15:02 | -27.19742 | -57.55154 | 39981 ft | 431 kts | 349° |
| 2026-04-26 15:03 | -27.13728 | -57.54986 | 39980 ft | 432 kts | 349° |
| 2026-04-26 15:03 | -27.07759 | -57.54819 | 39978 ft | 432 kts | 349° |
| 2026-04-26 15:04 | -27.01761 | -57.54652 | 39977 ft | 432 kts | 349° |
| 2026-04-26 15:04 | -26.95742 | -57.54485 | 39979 ft | 432 kts | 349° |
| 2026-04-26 15:05 | -26.89747 | -57.54318 | 39982 ft | 432 kts | 349° |
| 2026-04-26 15:05 | -26.83726 | -57.54159 | 39940 ft | 431 kts | 349° |
| 2026-04-26 15:06 | -26.77739 | -57.54084 | 39965 ft | 430 kts | 348° |
| 2026-04-26 15:06 | -26.71747 | -57.54030 | 39985 ft | 430 kts | 348° |
| 2026-04-26 15:07 | -26.62721 | -57.53935 | 39981 ft | 432 kts | 348° |
| 2026-04-26 15:07 | -26.56773 | -57.53866 | 39967 ft | 432 kts | 349° |
| 2026-04-26 15:08 | -26.50717 | -57.53795 | 39969 ft | 433 kts | 349° |
| 2026-04-26 15:08 | -26.44689 | -57.53725 | 39978 ft | 434 kts | 349° |
| 2026-04-26 15:09 | -26.38631 | -57.53655 | 39980 ft | 435 kts | 349° |
| 2026-04-26 15:09 | -26.32584 | -57.53584 | 39939 ft | 436 kts | 349° |
| 2026-04-26 15:10 | -26.27531 | -57.53524 | 39967 ft | 436 kts | 349° |
| 2026-04-26 15:10 | -26.20458 | -57.53443 | 39975 ft | 437 kts | 349° |
| 2026-04-26 15:11 | -26.14345 | -57.53372 | 39977 ft | 438 kts | 349° |
| 2026-04-26 15:11 | -26.08238 | -57.53301 | 39979 ft | 438 kts | 349° |
| 2026-04-26 15:12 | -26.02130 | -57.53223 | 39972 ft | 438 kts | 350° |
| 2026-04-26 15:12 | -25.96101 | -57.53142 | 39978 ft | 438 kts | 350° |
| 2026-04-26 15:13 | -25.89948 | -57.53060 | 39976 ft | 439 kts | 350° |
| 2026-04-26 15:13 | -25.83837 | -57.52979 | 39975 ft | 439 kts | 350° |
| 2026-04-26 15:14 | -25.77730 | -57.52899 | 39972 ft | 438 kts | 351° |
| 2026-04-26 15:14 | -25.71671 | -57.52819 | 39975 ft | 438 kts | 351° |
| 2026-04-26 15:15 | -25.65604 | -57.52739 | 39974 ft | 438 kts | 351° |
| 2026-04-26 15:15 | -25.59463 | -57.52659 | 39970 ft | 439 kts | 351° |
| 2026-04-26 15:16 | -25.53344 | -57.52578 | 39947 ft | 440 kts | 351° |
| 2026-04-26 15:16 | -25.47241 | -57.52498 | 39964 ft | 440 kts | 351° |
| 2026-04-26 15:17 | -25.42144 | -57.52432 | 39971 ft | 440 kts | 351° |
| 2026-04-26 15:17 | -25.35009 | -57.52339 | 39974 ft | 441 kts | 351° |
| 2026-04-26 15:18 | -25.28836 | -57.52249 | 39941 ft | 443 kts | 353° |
| 2026-04-26 15:18 | -25.25775 | -57.51828 | 39936 ft | 455 kts | 4° |
| 2026-04-26 15:18 | -25.22667 | -57.50821 | 39937 ft | 465 kts | 13° |
| 2026-04-26 15:19 | -25.19761 | -57.49322 | 39931 ft | 476 kts | 22° |
| 2026-04-26 15:19 | -25.16839 | -57.47417 | 39947 ft | 478 kts | 23° |
| 2026-04-26 15:19 | -25.11151 | -57.43554 | 39941 ft | 481 kts | 24° |
| 2026-04-26 15:20 | -25.05501 | -57.39749 | 39948 ft | 482 kts | 23° |
| 2026-04-26 15:20 | -24.99726 | -57.35928 | 39955 ft | 481 kts | 23° |
| 2026-04-26 15:21 | -24.93975 | -57.32148 | 39961 ft | 479 kts | 24° |
| 2026-04-26 15:21 | -24.88294 | -57.28419 | 39962 ft | 477 kts | 24° |
| 2026-04-26 15:22 | -24.82597 | -57.24683 | 39962 ft | 476 kts | 23° |
| 2026-04-26 15:22 | -24.76915 | -57.20960 | 39967 ft | 474 kts | 23° |
| 2026-04-26 15:23 | -24.71236 | -57.17241 | 39964 ft | 474 kts | 23° |
| 2026-04-26 15:23 | -24.65568 | -57.13535 | 39955 ft | 474 kts | 24° |
| 2026-04-26 15:24 | -24.59898 | -57.09830 | 39967 ft | 473 kts | 24° |
| 2026-04-26 15:24 | -24.54266 | -57.06154 | 39947 ft | 473 kts | 24° |
| 2026-04-26 15:25 | -24.49574 | -57.03094 | 39964 ft | 471 kts | 24° |
| 2026-04-26 15:25 | -24.43031 | -56.98837 | 39949 ft | 468 kts | 24° |
| 2026-04-26 15:26 | -24.37443 | -56.95206 | 39959 ft | 465 kts | 24° |
| 2026-04-26 15:26 | -24.31867 | -56.91585 | 39959 ft | 464 kts | 24° |
| 2026-04-26 15:27 | -24.26322 | -56.87989 | 39962 ft | 463 kts | 24° |
| 2026-04-26 15:27 | -24.20788 | -56.84403 | 39960 ft | 463 kts | 24° |
| 2026-04-26 15:28 | -24.15214 | -56.80795 | 39957 ft | 464 kts | 24° |
| 2026-04-26 15:28 | -24.09680 | -56.77216 | 39956 ft | 465 kts | 24° |
| 2026-04-26 15:29 | -24.04092 | -56.73605 | 39960 ft | 466 kts | 24° |
| 2026-04-26 15:30 | -23.92944 | -56.66412 | 39964 ft | 466 kts | 24° |
| 2026-04-26 15:30 | -23.87346 | -56.62806 | 39962 ft | 467 kts | 24° |
| 2026-04-26 15:31 | -23.79902 | -56.58015 | 39962 ft | 467 kts | 24° |
| 2026-04-26 15:32 | -23.72422 | -56.53210 | 39955 ft | 469 kts | 24° |
| 2026-04-26 15:32 | -23.65861 | -56.48999 | 39955 ft | 469 kts | 25° |
| 2026-04-26 15:33 | -23.60237 | -56.45393 | 39960 ft | 468 kts | 25° |
| 2026-04-26 15:33 | -23.54624 | -56.41798 | 39963 ft | 468 kts | 25° |
| 2026-04-26 15:34 | -23.49004 | -56.38202 | 39959 ft | 468 kts | 25° |
| 2026-04-26 15:34 | -23.43381 | -56.34608 | 39964 ft | 467 kts | 25° |
| 2026-04-26 15:35 | -23.37826 | -56.31062 | 39950 ft | 467 kts | 25° |
| 2026-04-26 15:35 | -23.32178 | -56.27459 | 39959 ft | 467 kts | 25° |
| 2026-04-26 15:36 | -23.26609 | -56.23909 | 39963 ft | 467 kts | 25° |
| 2026-04-26 15:36 | -23.20984 | -56.20328 | 39951 ft | 467 kts | 25° |
| 2026-04-26 15:37 | -23.15398 | -56.16775 | 39963 ft | 467 kts | 25° |
| 2026-04-26 15:37 | -23.09776 | -56.13201 | 39957 ft | 468 kts | 25° |
| 2026-04-26 15:38 | -23.04139 | -56.09635 | 39948 ft | 468 kts | 25° |
| 2026-04-26 15:38 | -22.98486 | -56.06109 | 39958 ft | 468 kts | 25° |
| 2026-04-26 15:39 | -22.92840 | -56.02596 | 39956 ft | 469 kts | 25° |
| 2026-04-26 15:39 | -22.88139 | -55.99667 | 39949 ft | 469 kts | 25° |
| 2026-04-26 15:40 | -22.81513 | -55.95539 | 39953 ft | 469 kts | 25° |
| 2026-04-26 15:40 | -22.75914 | -55.92053 | 39946 ft | 469 kts | 25° |
| 2026-04-26 15:41 | -22.70219 | -55.88511 | 39954 ft | 469 kts | 25° |
| 2026-04-26 15:41 | -22.64556 | -55.84993 | 39956 ft | 469 kts | 25° |
| 2026-04-26 15:42 | -22.58892 | -55.81478 | 39954 ft | 469 kts | 25° |
| 2026-04-26 15:42 | -22.53248 | -55.77977 | 40046 ft | 468 kts | 25° |
| 2026-04-26 15:43 | -22.47616 | -55.74488 | 39958 ft | 468 kts | 25° |
| 2026-04-26 15:44 | -22.39012 | -55.69597 | 39963 ft | 464 kts | 22° |
| 2026-04-26 15:44 | -22.30389 | -55.64864 | 39966 ft | 462 kts | 22° |
| 2026-04-26 15:45 | -22.21855 | -55.60118 | 39968 ft | 461 kts | 22° |
| 2026-04-26 15:46 | -22.13346 | -55.55376 | 39956 ft | 460 kts | 22° |
| 2026-04-26 15:46 | -22.08590 | -55.52729 | 39960 ft | 459 kts | 22° |
| 2026-04-26 15:47 | -21.99107 | -55.47458 | 39959 ft | 459 kts | 23° |
| 2026-04-26 15:48 | -21.93481 | -55.44336 | 39959 ft | 458 kts | 23° |
| 2026-04-26 15:48 | -21.87791 | -55.41180 | 39957 ft | 459 kts | 23° |
| 2026-04-26 15:49 | -21.82124 | -55.38041 | 39952 ft | 459 kts | 23° |
| 2026-04-26 15:49 | -21.76469 | -55.34910 | 39952 ft | 459 kts | 23° |
| 2026-04-26 15:50 | -21.70771 | -55.31758 | 39963 ft | 460 kts | 23° |
| 2026-04-26 15:50 | -21.65071 | -55.28608 | 39954 ft | 460 kts | 23° |
| 2026-04-26 15:51 | -21.59376 | -55.25464 | 39954 ft | 460 kts | 23° |
| 2026-04-26 15:51 | -21.53660 | -55.22311 | 39957 ft | 460 kts | 23° |
| 2026-04-26 15:52 | -21.48012 | -55.19198 | 39950 ft | 460 kts | 24° |
| 2026-04-26 15:52 | -21.42318 | -55.16062 | 39957 ft | 460 kts | 24° |
| 2026-04-26 15:53 | -21.36588 | -55.12910 | 39956 ft | 461 kts | 24° |
| 2026-04-26 15:53 | -21.30883 | -55.09774 | 39953 ft | 461 kts | 24° |
| 2026-04-26 15:54 | -21.25202 | -55.06654 | 39955 ft | 461 kts | 24° |
| 2026-04-26 15:54 | -21.19485 | -55.03516 | 39955 ft | 461 kts | 24° |
| 2026-04-26 15:55 | -21.13768 | -55.00381 | 39958 ft | 461 kts | 24° |
| 2026-04-26 15:55 | -21.08057 | -54.97252 | 39961 ft | 460 kts | 24° |
| 2026-04-26 15:56 | -21.02340 | -54.94378 | 39955 ft | 458 kts | 20° |
| 2026-04-26 15:56 | -20.96464 | -54.91632 | 39957 ft | 458 kts | 20° |
| 2026-04-26 15:57 | -20.90690 | -54.88863 | 39960 ft | 458 kts | 20° |
| 2026-04-26 15:57 | -20.84799 | -54.86074 | 39963 ft | 458 kts | 20° |
| 2026-04-26 15:58 | -20.79012 | -54.83344 | 39957 ft | 458 kts | 20° |
| 2026-04-26 15:58 | -20.73180 | -54.80590 | 39976 ft | 457 kts | 20° |
| 2026-04-26 15:59 | -20.67362 | -54.77842 | 40002 ft | 457 kts | 20° |
| 2026-04-26 15:59 | -20.61551 | -54.75100 | 40022 ft | 456 kts | 20° |
| 2026-04-26 16:00 | -20.55775 | -54.72375 | 40036 ft | 456 kts | 20° |
| 2026-04-26 16:00 | -20.49968 | -54.69640 | 40052 ft | 455 kts | 20° |
| 2026-04-26 16:01 | -20.44004 | -54.67493 | 40062 ft | 451 kts | 11° |
| 2026-04-26 16:01 | -20.37910 | -54.65860 | 39961 ft | 451 kts | 11° |
| 2026-04-26 16:02 | -20.31823 | -54.64240 | 39967 ft | 452 kts | 11° |
| 2026-04-26 16:02 | -20.25709 | -54.62567 | 39959 ft | 453 kts | 11° |
| 2026-04-26 16:03 | -20.19645 | -54.60881 | 39964 ft | 453 kts | 12° |
| 2026-04-26 16:03 | -20.13537 | -54.59177 | 39959 ft | 454 kts | 12° |
| 2026-04-26 16:04 | -20.07431 | -54.57476 | 39960 ft | 454 kts | 12° |
| 2026-04-26 16:04 | -20.01319 | -54.55776 | 39965 ft | 454 kts | 11° |
| 2026-04-26 16:05 | -19.95192 | -54.54073 | 39957 ft | 454 kts | 11° |
| 2026-04-26 16:05 | -19.89157 | -54.52398 | 39965 ft | 454 kts | 11° |
| 2026-04-26 16:06 | -19.83015 | -54.50694 | 39962 ft | 454 kts | 11° |
| 2026-04-26 16:06 | -19.76884 | -54.48994 | 39967 ft | 454 kts | 11° |
| 2026-04-26 16:07 | -19.70762 | -54.47299 | 39962 ft | 454 kts | 11° |
| 2026-04-26 16:07 | -19.64699 | -54.45621 | 39962 ft | 454 kts | 11° |
| 2026-04-26 16:08 | -19.58583 | -54.43930 | 39964 ft | 454 kts | 11° |
| 2026-04-26 16:08 | -19.52496 | -54.42247 | 39962 ft | 454 kts | 11° |
| 2026-04-26 16:09 | -19.46320 | -54.40542 | 39958 ft | 454 kts | 11° |
| 2026-04-26 16:09 | -19.40247 | -54.38867 | 39954 ft | 454 kts | 11° |
| 2026-04-26 16:10 | -19.34146 | -54.37185 | 39958 ft | 453 kts | 11° |
| 2026-04-26 16:10 | -19.28028 | -54.35499 | 39963 ft | 453 kts | 11° |
| 2026-04-26 16:11 | -19.21923 | -54.33819 | 39954 ft | 453 kts | 11° |
| 2026-04-26 16:11 | -19.15826 | -54.32142 | 39958 ft | 452 kts | 11° |
| 2026-04-26 16:12 | -19.09732 | -54.30467 | 39950 ft | 452 kts | 11° |
| 2026-04-26 16:12 | -19.00620 | -54.27965 | 39954 ft | 452 kts | 11° |
| 2026-04-26 16:13 | -18.94549 | -54.26300 | 39951 ft | 452 kts | 11° |
| 2026-04-26 16:13 | -18.88432 | -54.24623 | 39953 ft | 453 kts | 11° |
| 2026-04-26 16:14 | -18.82329 | -54.22952 | 39946 ft | 453 kts | 11° |
| 2026-04-26 16:15 | -18.73181 | -54.20449 | 39951 ft | 453 kts | 12° |
| 2026-04-26 16:15 | -18.67105 | -54.18788 | 39949 ft | 453 kts | 12° |
| 2026-04-26 16:16 | -18.57937 | -54.16284 | 39948 ft | 453 kts | 12° |
| 2026-04-26 16:16 | -18.51827 | -54.14616 | 39938 ft | 453 kts | 12° |
| 2026-04-26 16:17 | -18.45775 | -54.12966 | 39943 ft | 453 kts | 12° |
| 2026-04-26 16:17 | -18.39636 | -54.11293 | 39946 ft | 453 kts | 12° |
| 2026-04-26 16:18 | -18.30477 | -54.08800 | 39942 ft | 453 kts | 12° |
| 2026-04-26 16:19 | -18.21320 | -54.06310 | 39939 ft | 452 kts | 12° |
| 2026-04-26 16:20 | -18.12169 | -54.03824 | 39942 ft | 452 kts | 12° |
| 2026-04-26 16:20 | -18.03059 | -54.01352 | 39944 ft | 452 kts | 12° |
| 2026-04-26 16:21 | -17.98005 | -53.99982 | 39940 ft | 452 kts | 12° |
| 2026-04-26 16:21 | -17.90921 | -53.98063 | 39921 ft | 452 kts | 12° |
| 2026-04-26 16:22 | -17.85811 | -53.96680 | 39934 ft | 452 kts | 12° |
| 2026-04-26 16:22 | -17.79767 | -53.95044 | 39945 ft | 452 kts | 12° |
| 2026-04-26 16:23 | -17.73668 | -53.93396 | 39945 ft | 452 kts | 12° |
| 2026-04-26 16:23 | -17.67594 | -53.91754 | 39954 ft | 453 kts | 12° |
| 2026-04-26 16:24 | -17.61468 | -53.90101 | 39951 ft | 453 kts | 12° |
| 2026-04-26 16:24 | -17.55377 | -53.88457 | 39956 ft | 453 kts | 12° |
| 2026-04-26 16:25 | -17.49248 | -53.86805 | 39955 ft | 454 kts | 12° |
| 2026-04-26 16:25 | -17.43197 | -53.85174 | 39954 ft | 454 kts | 12° |
| 2026-04-26 16:26 | -17.37010 | -53.83508 | 39960 ft | 454 kts | 12° |
| 2026-04-26 16:26 | -17.30924 | -53.81871 | 39960 ft | 454 kts | 12° |
| 2026-04-26 16:27 | -17.24800 | -53.80225 | 39961 ft | 454 kts | 12° |
| 2026-04-26 16:27 | -17.18679 | -53.78580 | 39961 ft | 454 kts | 12° |
| 2026-04-26 16:28 | -17.12556 | -53.76936 | 39960 ft | 454 kts | 12° |
| 2026-04-26 16:28 | -17.06432 | -53.75293 | 39959 ft | 454 kts | 12° |
| 2026-04-26 16:29 | -17.00338 | -53.73658 | 39954 ft | 454 kts | 12° |
| 2026-04-26 16:29 | -16.94221 | -53.72019 | 39963 ft | 453 kts | 12° |
| 2026-04-26 16:30 | -16.88097 | -53.70379 | 39962 ft | 453 kts | 12° |
| 2026-04-26 16:30 | -16.81981 | -53.68743 | 39958 ft | 453 kts | 12° |
| 2026-04-26 16:31 | -16.75906 | -53.67118 | 39962 ft | 454 kts | 12° |
| 2026-04-26 16:31 | -16.69778 | -53.65480 | 39949 ft | 454 kts | 12° |
| 2026-04-26 16:32 | -16.64690 | -53.64121 | 39954 ft | 454 kts | 12° |
| 2026-04-26 16:32 | -16.57531 | -53.62209 | 39950 ft | 454 kts | 12° |
| 2026-04-26 16:33 | -16.51405 | -53.60589 | 39950 ft | 454 kts | 10° |
| 2026-04-26 16:33 | -16.45241 | -53.59583 | 39954 ft | 452 kts | 5° |
| 2026-04-26 16:34 | -16.38977 | -53.58810 | 39948 ft | 452 kts | 5° |
| 2026-04-26 16:34 | -16.32727 | -53.58022 | 39943 ft | 452 kts | 5° |
| 2026-04-26 16:35 | -16.26547 | -53.57202 | 39947 ft | 452 kts | 5° |
| 2026-04-26 16:35 | -16.20281 | -53.56351 | 39940 ft | 452 kts | 5° |
| 2026-04-26 16:36 | -16.14053 | -53.55502 | 39943 ft | 452 kts | 5° |
| 2026-04-26 16:36 | -16.07800 | -53.54650 | 39949 ft | 452 kts | 5° |
| 2026-04-26 16:37 | -16.01546 | -53.53800 | 39945 ft | 453 kts | 5° |
| 2026-04-26 16:37 | -15.95308 | -53.52953 | 39947 ft | 453 kts | 5° |
| 2026-04-26 16:38 | -15.89015 | -53.52099 | 39943 ft | 453 kts | 5° |
| 2026-04-26 16:38 | -15.82791 | -53.51256 | 39944 ft | 453 kts | 6° |
| 2026-04-26 16:39 | -15.76558 | -53.50411 | 39948 ft | 453 kts | 6° |
| 2026-04-26 16:39 | -15.70324 | -53.49567 | 39943 ft | 453 kts | 6° |
| 2026-04-26 16:40 | -15.64105 | -53.48725 | 39945 ft | 453 kts | 6° |
| 2026-04-26 16:40 | -15.57837 | -53.47877 | 39945 ft | 453 kts | 6° |
| 2026-04-26 16:41 | -15.51604 | -53.47035 | 39944 ft | 453 kts | 6° |
| 2026-04-26 16:41 | -15.45325 | -53.46186 | 39947 ft | 453 kts | 6° |
| 2026-04-26 16:42 | -15.39078 | -53.45343 | 39944 ft | 453 kts | 6° |
| 2026-04-26 16:42 | -15.32847 | -53.44502 | 39943 ft | 453 kts | 6° |
| 2026-04-26 16:43 | -15.26618 | -53.43662 | 39941 ft | 454 kts | 6° |
| 2026-04-26 16:43 | -15.20336 | -53.42816 | 39942 ft | 454 kts | 6° |
| 2026-04-26 16:44 | -15.14097 | -53.41975 | 39942 ft | 454 kts | 6° |
| 2026-04-26 16:44 | -15.07795 | -53.41127 | 39942 ft | 454 kts | 6° |
| 2026-04-26 16:45 | -15.01517 | -53.40282 | 39940 ft | 454 kts | 6° |
| 2026-04-26 16:45 | -14.95317 | -53.39449 | 39953 ft | 454 kts | 6° |
| 2026-04-26 16:46 | -14.89029 | -53.38604 | 39940 ft | 454 kts | 6° |
| 2026-04-26 16:46 | -14.82729 | -53.37758 | 39938 ft | 454 kts | 6° |
| 2026-04-26 16:47 | -14.76521 | -53.36925 | 39937 ft | 454 kts | 6° |
| 2026-04-26 16:47 | -14.70226 | -53.36080 | 39939 ft | 453 kts | 6° |
| 2026-04-26 16:48 | -14.63964 | -53.35241 | 39934 ft | 453 kts | 6° |
| 2026-04-26 16:48 | -14.57716 | -53.34404 | 39935 ft | 453 kts | 6° |
| 2026-04-26 16:49 | -14.51497 | -53.33571 | 39928 ft | 453 kts | 6° |
| 2026-04-26 16:49 | -14.45254 | -53.32736 | 39927 ft | 452 kts | 6° |
| 2026-04-26 16:50 | -14.39011 | -53.31901 | 39924 ft | 452 kts | 6° |
| 2026-04-26 16:50 | -14.32767 | -53.31066 | 39929 ft | 452 kts | 6° |
| 2026-04-26 16:51 | -14.26570 | -53.30238 | 39927 ft | 452 kts | 6° |
| 2026-04-26 16:51 | -14.20330 | -53.29405 | 39930 ft | 452 kts | 6° |
| 2026-04-26 16:52 | -14.15135 | -53.28711 | 39927 ft | 452 kts | 6° |
| 2026-04-26 16:52 | -14.07833 | -53.27737 | 39927 ft | 452 kts | 6° |
| 2026-04-26 16:53 | -14.01629 | -53.26910 | 39924 ft | 452 kts | 6° |
| 2026-04-26 16:53 | -13.95389 | -53.26079 | 39930 ft | 452 kts | 6° |
| 2026-04-26 16:54 | -13.89141 | -53.25247 | 39929 ft | 452 kts | 6° |
| 2026-04-26 16:54 | -13.82893 | -53.24416 | 39928 ft | 452 kts | 6° |
| 2026-04-26 16:55 | -13.76708 | -53.23593 | 39927 ft | 452 kts | 7° |
| 2026-04-26 16:55 | -13.70475 | -53.22764 | 39926 ft | 452 kts | 7° |
| 2026-04-26 16:56 | -13.61079 | -53.21518 | 39925 ft | 452 kts | 6° |
| 2026-04-26 16:57 | -13.54837 | -53.20688 | 39926 ft | 451 kts | 7° |
| 2026-04-26 16:57 | -13.45527 | -53.19455 | 39927 ft | 451 kts | 6° |
| 2026-04-26 16:58 | -13.40375 | -53.18771 | 39919 ft | 450 kts | 7° |
| 2026-04-26 16:59 | -13.29974 | -53.17391 | 39923 ft | 450 kts | 7° |
| 2026-04-26 17:00 | -13.17602 | -53.15752 | 39914 ft | 450 kts | 7° |
| 2026-04-26 17:00 | -13.08293 | -53.14521 | 39913 ft | 449 kts | 7° |
| 2026-04-26 17:01 | -13.02115 | -53.13704 | 39911 ft | 450 kts | 7° |
| 2026-04-26 17:01 | -12.95897 | -53.12883 | 39915 ft | 450 kts | 7° |
| 2026-04-26 17:02 | -12.89699 | -53.12065 | 39914 ft | 450 kts | 7° |
| 2026-04-26 17:02 | -12.83492 | -53.11246 | 39908 ft | 450 kts | 7° |
| 2026-04-26 17:03 | -12.77307 | -53.10430 | 39909 ft | 450 kts | 7° |
| 2026-04-26 17:03 | -12.71081 | -53.09609 | 39915 ft | 449 kts | 7° |
| 2026-04-26 17:04 | -12.64861 | -53.08789 | 39909 ft | 449 kts | 7° |
| 2026-04-26 17:04 | -12.58725 | -53.07980 | 39905 ft | 449 kts | 7° |
| 2026-04-26 17:05 | -12.52485 | -53.07159 | 39909 ft | 449 kts | 7° |
| 2026-04-26 17:05 | -12.46261 | -53.06340 | 39914 ft | 449 kts | 7° |
| 2026-04-26 17:06 | -12.40045 | -53.05522 | 39907 ft | 449 kts | 7° |
| 2026-04-26 17:06 | -12.33884 | -53.04712 | 39907 ft | 450 kts | 7° |
| 2026-04-26 17:07 | -12.27661 | -53.03894 | 39912 ft | 449 kts | 7° |
| 2026-04-26 17:07 | -12.21486 | -53.03083 | 39920 ft | 449 kts | 7° |
| 2026-04-26 17:08 | -12.15289 | -53.02130 | 39913 ft | 450 kts | 10° |
| 2026-04-26 17:08 | -12.09122 | -53.00939 | 39910 ft | 450 kts | 11° |
| 2026-04-26 17:09 | -12.05041 | -53.00140 | 39912 ft | 450 kts | 10° |
| 2026-04-26 17:09 | -11.96838 | -52.98579 | 39919 ft | 450 kts | 10° |
| 2026-04-26 17:10 | -11.90688 | -52.97433 | 39918 ft | 450 kts | 10° |
| 2026-04-26 17:10 | -11.84482 | -52.96283 | 39913 ft | 451 kts | 10° |
| 2026-04-26 17:11 | -11.78358 | -52.95148 | 39910 ft | 451 kts | 9° |
| 2026-04-26 17:11 | -11.72187 | -52.94004 | 39914 ft | 451 kts | 10° |
| 2026-04-26 17:12 | -11.63958 | -52.92479 | 39913 ft | 451 kts | 10° |
| 2026-04-26 17:13 | -11.54694 | -52.90763 | 39907 ft | 451 kts | 10° |
| 2026-04-26 17:14 | -11.45512 | -52.89064 | 39914 ft | 451 kts | 10° |
| 2026-04-26 17:14 | -11.36218 | -52.87344 | 39919 ft | 450 kts | 10° |
| 2026-04-26 17:15 | -11.26962 | -52.85634 | 39918 ft | 450 kts | 10° |
| 2026-04-26 17:16 | -11.20815 | -52.84498 | 39920 ft | 450 kts | 10° |
| 2026-04-26 17:16 | -11.14626 | -52.83355 | 39911 ft | 450 kts | 10° |
| 2026-04-26 17:17 | -11.08471 | -52.82219 | 39904 ft | 450 kts | 11° |
| 2026-04-26 17:17 | -11.02348 | -52.81089 | 39915 ft | 450 kts | 11° |
| 2026-04-26 17:18 | -10.96177 | -52.79950 | 39924 ft | 450 kts | 11° |
| 2026-04-26 17:18 | -10.90044 | -52.78819 | 39922 ft | 450 kts | 11° |
| 2026-04-26 17:19 | -10.80808 | -52.77120 | 39916 ft | 451 kts | 11° |
| 2026-04-26 17:19 | -10.74581 | -52.75973 | 39915 ft | 452 kts | 12° |
| 2026-04-26 17:20 | -10.69407 | -52.75020 | 39927 ft | 452 kts | 11° |
| 2026-04-26 17:20 | -10.62196 | -52.73694 | 39914 ft | 453 kts | 11° |
| 2026-04-26 17:21 | -10.55982 | -52.72550 | 39924 ft | 454 kts | 11° |
| 2026-04-26 17:21 | -10.49770 | -52.71408 | 39921 ft | 454 kts | 10° |
| 2026-04-26 17:22 | -10.43600 | -52.70274 | 39925 ft | 455 kts | 12° |
| 2026-04-26 17:22 | -10.37353 | -52.69126 | 39923 ft | 455 kts | 10° |
| 2026-04-26 17:23 | -10.31113 | -52.67980 | 39919 ft | 455 kts | 11° |
| 2026-04-26 17:23 | -10.24886 | -52.66837 | 39924 ft | 454 kts | 12° |
| 2026-04-26 17:24 | -10.18697 | -52.65702 | 39923 ft | 455 kts | 10° |
| 2026-04-26 17:24 | -10.12470 | -52.64561 | 39920 ft | 455 kts | 11° |
| 2026-04-26 17:25 | -10.06267 | -52.63424 | 39917 ft | 455 kts | 12° |
| 2026-04-26 17:25 | -9.99994 | -52.62274 | 39923 ft | 454 kts | 11° |
| 2026-04-26 17:26 | -9.93811 | -52.61142 | 39918 ft | 455 kts | 11° |
| 2026-04-26 17:26 | -9.87576 | -52.59999 | 39926 ft | 455 kts | 12° |
| 2026-04-26 17:27 | -9.81358 | -52.58859 | 39923 ft | 456 kts | 11° |
| 2026-04-26 17:27 | -9.75070 | -52.57709 | 39917 ft | 457 kts | 11° |
| 2026-04-26 17:28 | -9.68828 | -52.56567 | 39918 ft | 458 kts | 11° |
| 2026-04-26 17:28 | -9.62533 | -52.55416 | 39918 ft | 458 kts | 11° |
| 2026-04-26 17:29 | -9.57330 | -52.54466 | 39921 ft | 458 kts | 12° |
| 2026-04-26 17:29 | -9.50025 | -52.53131 | 39918 ft | 458 kts | 11° |
| 2026-04-26 17:30 | -9.43772 | -52.51989 | 39920 ft | 457 kts | 11° |
| 2026-04-26 17:30 | -9.37542 | -52.50852 | 39919 ft | 457 kts | 11° |
| 2026-04-26 17:31 | -9.31262 | -52.49705 | 39921 ft | 456 kts | 11° |
| 2026-04-26 17:31 | -9.25018 | -52.48566 | 39916 ft | 456 kts | 11° |
| 2026-04-26 17:32 | -9.18775 | -52.47428 | 39915 ft | 455 kts | 11° |
| 2026-04-26 17:32 | -9.12543 | -52.46292 | 39916 ft | 454 kts | 11° |
| 2026-04-26 17:33 | -9.06393 | -52.45171 | 39916 ft | 454 kts | 11° |
| 2026-04-26 17:34 | -8.97042 | -52.43468 | 39916 ft | 454 kts | 11° |
| 2026-04-26 17:34 | -8.90802 | -52.42330 | 39912 ft | 453 kts | 12° |
| 2026-04-26 17:35 | -8.84586 | -52.41197 | 39916 ft | 453 kts | 12° |
| 2026-04-26 17:35 | -8.78369 | -52.40069 | 39907 ft | 453 kts | 11° |
| 2026-04-26 17:36 | -8.72195 | -52.38946 | 39912 ft | 453 kts | 10° |
| 2026-04-26 17:36 | -8.65989 | -52.37817 | 39915 ft | 453 kts | 11° |
| 2026-04-26 17:37 | -8.59776 | -52.36686 | 39910 ft | 454 kts | 11° |
| 2026-04-26 17:37 | -8.53526 | -52.35717 | 39908 ft | 455 kts | 7° |
| 2026-04-26 17:38 | -8.44053 | -52.34754 | 39914 ft | 456 kts | 7° |
| 2026-04-26 17:38 | -8.37736 | -52.34119 | 39909 ft | 457 kts | 7° |
| 2026-04-26 17:39 | -8.31406 | -52.33456 | 39907 ft | 457 kts | 7° |
| 2026-04-26 17:39 | -8.25122 | -52.32785 | 39913 ft | 457 kts | 7° |
| 2026-04-26 17:40 | -8.19858 | -52.32222 | 39911 ft | 457 kts | 7° |
| 2026-04-26 17:40 | -8.12464 | -52.31431 | 39914 ft | 457 kts | 7° |
| 2026-04-26 17:41 | -8.06171 | -52.30759 | 39905 ft | 457 kts | 7° |
| 2026-04-26 17:41 | -7.99890 | -52.30089 | 39900 ft | 456 kts | 7° |
| 2026-04-26 17:42 | -7.93567 | -52.29415 | 39908 ft | 455 kts | 7° |
| 2026-04-26 17:42 | -7.87246 | -52.28737 | 39916 ft | 454 kts | 7° |
| 2026-04-26 17:43 | -7.80949 | -52.28068 | 39918 ft | 454 kts | 7° |
| 2026-04-26 17:43 | -7.74658 | -52.27401 | 39918 ft | 454 kts | 8° |
| 2026-04-26 17:44 | -7.68357 | -52.26728 | 39918 ft | 455 kts | 7° |
| 2026-04-26 17:44 | -7.62098 | -52.26058 | 39917 ft | 456 kts | 7° |
| 2026-04-26 17:45 | -7.55794 | -52.25389 | 39917 ft | 456 kts | 7° |
| 2026-04-26 17:45 | -7.49449 | -52.24716 | 39923 ft | 457 kts | 8° |
| 2026-04-26 17:46 | -7.43166 | -52.24046 | 39917 ft | 458 kts | 7° |
| 2026-04-26 17:46 | -7.36809 | -52.23368 | 39919 ft | 458 kts | 8° |
| 2026-04-26 17:47 | -7.32591 | -52.22918 | 39918 ft | 458 kts | 7° |
| 2026-04-26 17:47 | -7.24119 | -52.22019 | 39920 ft | 459 kts | 7° |
| 2026-04-26 17:48 | -7.17792 | -52.21347 | 39918 ft | 459 kts | 7° |
| 2026-04-26 17:48 | -7.11433 | -52.20671 | 39911 ft | 459 kts | 7° |
| 2026-04-26 17:49 | -7.05068 | -52.19996 | 39911 ft | 459 kts | 8° |
| 2026-04-26 17:49 | -6.98773 | -52.19325 | 39913 ft | 459 kts | 7° |
| 2026-04-26 17:50 | -6.92383 | -52.18647 | 39910 ft | 459 kts | 7° |
| 2026-04-26 17:50 | -6.86025 | -52.17972 | 39909 ft | 459 kts | 7° |
| 2026-04-26 17:51 | -6.79718 | -52.17303 | 39910 ft | 459 kts | 7° |
| 2026-04-26 17:51 | -6.73348 | -52.16628 | 39917 ft | 459 kts | 7° |
| 2026-04-26 17:52 | -6.66975 | -52.15952 | 39909 ft | 459 kts | 7° |
| 2026-04-26 17:52 | -6.60621 | -52.15278 | 39912 ft | 459 kts | 7° |
| 2026-04-26 17:53 | -6.54261 | -52.14604 | 39910 ft | 459 kts | 7° |
| 2026-04-26 17:54 | -6.44711 | -52.13592 | 39915 ft | 460 kts | 7° |
| 2026-04-26 17:54 | -6.38370 | -52.12921 | 39912 ft | 461 kts | 7° |
| 2026-04-26 17:55 | -6.31974 | -52.12243 | 39915 ft | 461 kts | 7° |
| 2026-04-26 17:55 | -6.25579 | -52.11566 | 39911 ft | 462 kts | 7° |
| 2026-04-26 17:56 | -6.19184 | -52.10889 | 39910 ft | 462 kts | 7° |
| 2026-04-26 17:57 | -6.06420 | -52.09538 | 39912 ft | 462 kts | 7° |
| 2026-04-26 17:57 | -6.00019 | -52.08861 | 39911 ft | 462 kts | 7° |
| 2026-04-26 17:58 | -5.87251 | -52.07511 | 39905 ft | 462 kts | 7° |
| 2026-04-26 17:59 | -5.77708 | -52.06548 | 39907 ft | 463 kts | 3° |
| 2026-04-26 17:59 | -5.71196 | -52.06901 | 39905 ft | 464 kts | 356° |
| 2026-04-26 18:00 | -5.64822 | -52.07482 | 39910 ft | 464 kts | 356° |
| 2026-04-26 18:00 | -5.58383 | -52.08036 | 39907 ft | 464 kts | 357° |
| 2026-04-26 18:01 | -5.51924 | -52.08545 | 39901 ft | 464 kts | 357° |
| 2026-04-26 18:01 | -5.46585 | -52.08949 | 39901 ft | 464 kts | 357° |
| 2026-04-26 18:02 | -5.41233 | -52.09350 | 39900 ft | 464 kts | 357° |
| 2026-04-26 18:02 | -5.32619 | -52.09998 | 39897 ft | 464 kts | 357° |
| 2026-04-26 18:03 | -5.26174 | -52.10483 | 39895 ft | 464 kts | 357° |
| 2026-04-26 18:03 | -5.20818 | -52.10887 | 39897 ft | 464 kts | 357° |
| 2026-04-26 18:04 | -5.14375 | -52.11373 | 39893 ft | 464 kts | 357° |
| 2026-04-26 18:05 | -5.04763 | -52.12098 | 39888 ft | 464 kts | 357° |
| 2026-04-26 18:05 | -4.98305 | -52.12585 | 39892 ft | 464 kts | 357° |
| 2026-04-26 18:06 | -4.91854 | -52.13071 | 39893 ft | 464 kts | 357° |
| 2026-04-26 18:06 | -4.85408 | -52.13557 | 39890 ft | 464 kts | 357° |
| 2026-04-26 18:07 | -4.78969 | -52.14042 | 39894 ft | 464 kts | 357° |
| 2026-04-26 18:07 | -4.72584 | -52.14523 | 39894 ft | 464 kts | 357° |
| 2026-04-26 18:08 | -4.66128 | -52.15009 | 39890 ft | 465 kts | 357° |
| 2026-04-26 18:08 | -4.59634 | -52.15498 | 39894 ft | 465 kts | 357° |
| 2026-04-26 18:09 | -4.53213 | -52.15982 | 39892 ft | 465 kts | 357° |
| 2026-04-26 18:09 | -4.46763 | -52.16467 | 39890 ft | 465 kts | 357° |
| 2026-04-26 18:10 | -4.40336 | -52.16951 | 39890 ft | 465 kts | 357° |
| 2026-04-26 18:10 | -4.33848 | -52.17439 | 39890 ft | 465 kts | 357° |
| 2026-04-26 18:11 | -4.27415 | -52.17923 | 39890 ft | 465 kts | 357° |
| 2026-04-26 18:11 | -4.20981 | -52.18407 | 39894 ft | 465 kts | 357° |
| 2026-04-26 18:12 | -4.14527 | -52.18892 | 39890 ft | 465 kts | 357° |
| 2026-04-26 18:12 | -4.08075 | -52.19378 | 39890 ft | 465 kts | 357° |
| 2026-04-26 18:13 | -4.01614 | -52.19863 | 39891 ft | 465 kts | 357° |
| 2026-04-26 18:13 | -3.95163 | -52.20348 | 39888 ft | 465 kts | 357° |
| 2026-04-26 18:14 | -3.88753 | -52.20830 | 39892 ft | 464 kts | 357° |
| 2026-04-26 18:14 | -3.82297 | -52.21315 | 39889 ft | 464 kts | 357° |
| 2026-04-26 18:15 | -3.75849 | -52.21800 | 39885 ft | 464 kts | 357° |
| 2026-04-26 18:15 | -3.69439 | -52.22281 | 39891 ft | 464 kts | 357° |
| 2026-04-26 18:16 | -3.62997 | -52.22765 | 39889 ft | 464 kts | 357° |
| 2026-04-26 18:16 | -3.53340 | -52.23491 | 39892 ft | 463 kts | 358° |
| 2026-04-26 18:17 | -3.46919 | -52.23973 | 39887 ft | 462 kts | 358° |
| 2026-04-26 18:17 | -3.40544 | -52.24451 | 39885 ft | 462 kts | 358° |
| 2026-04-26 18:18 | -3.34129 | -52.24933 | 39885 ft | 461 kts | 358° |
| 2026-04-26 18:18 | -3.27715 | -52.25414 | 39884 ft | 461 kts | 358° |
| 2026-04-26 18:19 | -3.21352 | -52.25892 | 39888 ft | 461 kts | 358° |
| 2026-04-26 18:19 | -3.14947 | -52.26372 | 39883 ft | 461 kts | 358° |
| 2026-04-26 18:20 | -3.08541 | -52.26853 | 39887 ft | 461 kts | 358° |
| 2026-04-26 18:20 | -3.03230 | -52.27251 | 39886 ft | 461 kts | 358° |
| 2026-04-26 18:21 | -2.95818 | -52.27807 | 39886 ft | 460 kts | 357° |
| 2026-04-26 18:21 | -2.89388 | -52.28290 | 39884 ft | 460 kts | 357° |
| 2026-04-26 18:22 | -2.83026 | -52.28767 | 39882 ft | 460 kts | 357° |
| 2026-04-26 18:22 | -2.76609 | -52.29248 | 39886 ft | 460 kts | 357° |
| 2026-04-26 18:23 | -2.70260 | -52.29724 | 39890 ft | 459 kts | 357° |
| 2026-04-26 18:23 | -2.63854 | -52.30204 | 39886 ft | 459 kts | 357° |
| 2026-04-26 18:24 | -2.57527 | -52.30679 | 39887 ft | 458 kts | 357° |
| 2026-04-26 18:24 | -2.51162 | -52.31156 | 39886 ft | 458 kts | 357° |
| 2026-04-26 18:25 | -2.44809 | -52.31632 | 39886 ft | 457 kts | 357° |
| 2026-04-26 18:25 | -2.38451 | -52.32108 | 39892 ft | 457 kts | 357° |
| 2026-04-26 18:26 | -2.32115 | -52.32583 | 39883 ft | 456 kts | 357° |
| 2026-04-26 18:26 | -2.25782 | -52.33057 | 39886 ft | 456 kts | 357° |
| 2026-04-26 18:27 | -2.19483 | -52.33529 | 39884 ft | 456 kts | 357° |
| 2026-04-26 18:27 | -2.13154 | -52.34003 | 39882 ft | 455 kts | 357° |
| 2026-04-26 18:28 | -2.06832 | -52.34477 | 39880 ft | 455 kts | 357° |
| 2026-04-26 18:28 | -2.00503 | -52.34951 | 39883 ft | 456 kts | 357° |
| 2026-04-26 18:29 | -1.94178 | -52.35425 | 39883 ft | 456 kts | 357° |
| 2026-04-26 18:29 | -1.87918 | -52.35893 | 39882 ft | 456 kts | 357° |
| 2026-04-26 18:30 | -1.81575 | -52.36368 | 39887 ft | 456 kts | 357° |
| 2026-04-26 18:30 | -1.75192 | -52.36846 | 39884 ft | 457 kts | 357° |
| 2026-04-26 18:31 | -1.68853 | -52.37321 | 39882 ft | 457 kts | 357° |
| 2026-04-26 18:31 | -1.62566 | -52.37792 | 39884 ft | 458 kts | 357° |
| 2026-04-26 18:32 | -1.56138 | -52.38273 | 39881 ft | 458 kts | 357° |
| 2026-04-26 18:32 | -1.49816 | -52.38746 | 39878 ft | 458 kts | 357° |
| 2026-04-26 18:33 | -1.43437 | -52.39224 | 39882 ft | 458 kts | 357° |
| 2026-04-26 18:33 | -1.37071 | -52.39700 | 39879 ft | 458 kts | 357° |
| 2026-04-26 18:34 | -1.30707 | -52.40176 | 39877 ft | 458 kts | 357° |
| 2026-04-26 18:34 | -1.24385 | -52.40650 | 39880 ft | 458 kts | 357° |
| 2026-04-26 18:35 | -1.18012 | -52.41126 | 39880 ft | 458 kts | 357° |
| 2026-04-26 18:35 | -1.11655 | -52.41602 | 39878 ft | 458 kts | 357° |
| 2026-04-26 18:36 | -1.05346 | -52.42074 | 39880 ft | 458 kts | 357° |
| 2026-04-26 18:36 | -0.99002 | -52.42549 | 39879 ft | 457 kts | 357° |
| 2026-04-26 18:37 | -0.92642 | -52.43025 | 39880 ft | 457 kts | 357° |
| 2026-04-26 18:37 | -0.86282 | -52.43501 | 39877 ft | 457 kts | 357° |
| 2026-04-26 18:38 | -0.79955 | -52.43974 | 39880 ft | 458 kts | 357° |
| 2026-04-26 18:38 | -0.73602 | -52.44450 | 39880 ft | 458 kts | 357° |
| 2026-04-26 18:39 | -0.67242 | -52.44925 | 39883 ft | 458 kts | 357° |
| 2026-04-26 18:39 | -0.60883 | -52.45401 | 39881 ft | 458 kts | 357° |
| 2026-04-26 18:40 | -0.54595 | -52.45872 | 39883 ft | 458 kts | 358° |
| 2026-04-26 18:40 | -0.48200 | -52.46350 | 39884 ft | 458 kts | 358° |
| 2026-04-26 18:41 | -0.41835 | -52.46826 | 39883 ft | 458 kts | 358° |
| 2026-04-26 18:41 | -0.35516 | -52.47299 | 39884 ft | 459 kts | 358° |
| 2026-04-26 18:42 | -0.29152 | -52.47775 | 39882 ft | 459 kts | 358° |
| 2026-04-26 18:42 | -0.22754 | -52.48254 | 39879 ft | 459 kts | 358° |
| 2026-04-26 18:43 | -0.16363 | -52.48732 | 39883 ft | 459 kts | 358° |
| 2026-04-26 18:43 | -0.10024 | -52.49206 | 39883 ft | 459 kts | 358° |
| 2026-04-26 18:44 | -0.03677 | -52.49681 | 39880 ft | 459 kts | 358° |
| 2026-04-26 18:44 | 0.02714 | -52.50159 | 39882 ft | 459 kts | 358° |
| 2026-04-26 18:45 | 0.09067 | -52.50634 | 39879 ft | 459 kts | 358° |
| 2026-04-26 18:45 | 0.15423 | -52.51110 | 39881 ft | 458 kts | 358° |
| 2026-04-26 18:46 | 0.21817 | -52.51588 | 39881 ft | 458 kts | 358° |
| 2026-04-26 18:46 | 0.28126 | -52.52060 | 39879 ft | 458 kts | 358° |
| 2026-04-26 18:47 | 0.34493 | -52.52536 | 39888 ft | 458 kts | 357° |
| 2026-04-26 18:47 | 0.40843 | -52.53011 | 39884 ft | 458 kts | 357° |
| 2026-04-26 18:48 | 0.47229 | -52.53489 | 39887 ft | 458 kts | 357° |
| 2026-04-26 18:48 | 0.53582 | -52.53964 | 39886 ft | 458 kts | 357° |
| 2026-04-26 18:49 | 0.59895 | -52.54436 | 39886 ft | 458 kts | 357° |
| 2026-04-26 18:49 | 0.66256 | -52.54912 | 39888 ft | 458 kts | 357° |
| 2026-04-26 18:50 | 0.72564 | -52.55384 | 39889 ft | 458 kts | 357° |
| 2026-04-26 18:50 | 0.77897 | -52.55783 | 39889 ft | 458 kts | 357° |
| 2026-04-26 18:51 | 0.85276 | -52.56335 | 39888 ft | 457 kts | 357° |
| 2026-04-26 18:51 | 0.91628 | -52.56811 | 39891 ft | 457 kts | 358° |
| 2026-04-26 18:52 | 0.96945 | -52.57209 | 39891 ft | 457 kts | 358° |
| 2026-04-26 18:52 | 1.03215 | -52.57678 | 39888 ft | 457 kts | 358° |
| 2026-04-26 18:53 | 1.09573 | -52.58154 | 39884 ft | 456 kts | 358° |
| 2026-04-26 18:53 | 1.15925 | -52.58629 | 39884 ft | 456 kts | 358° |
| 2026-04-26 18:54 | 1.22270 | -52.59104 | 39886 ft | 456 kts | 358° |
| 2026-04-26 18:54 | 1.28568 | -52.59575 | 39884 ft | 456 kts | 358° |
| 2026-04-26 18:55 | 1.34903 | -52.60049 | 39890 ft | 456 kts | 358° |
| 2026-04-26 18:55 | 1.41242 | -52.60524 | 39891 ft | 456 kts | 358° |
| 2026-04-26 18:56 | 1.47596 | -52.60999 | 39896 ft | 457 kts | 358° |
| 2026-04-26 18:56 | 1.53894 | -52.61471 | 39897 ft | 457 kts | 358° |
| 2026-04-26 18:57 | 1.59193 | -52.61867 | 39902 ft | 457 kts | 358° |
| 2026-04-26 18:57 | 1.66627 | -52.62424 | 39893 ft | 459 kts | 358° |
| 2026-04-26 18:58 | 1.72953 | -52.62898 | 39900 ft | 459 kts | 358° |
| 2026-04-26 18:58 | 1.79300 | -52.63373 | 39898 ft | 459 kts | 358° |
| 2026-04-26 18:59 | 1.85688 | -52.63851 | 39902 ft | 459 kts | 358° |
| 2026-04-26 18:59 | 1.92035 | -52.64327 | 39899 ft | 458 kts | 358° |
| 2026-04-26 19:00 | 1.98416 | -52.64804 | 39897 ft | 458 kts | 358° |
| 2026-04-26 19:00 | 2.04736 | -52.65278 | 39898 ft | 457 kts | 358° |
| 2026-04-26 19:01 | 2.11090 | -52.65754 | 39897 ft | 457 kts | 358° |
| 2026-04-26 19:01 | 2.17415 | -52.66228 | 39898 ft | 457 kts | 358° |
| 2026-04-26 19:02 | 2.23787 | -52.66705 | 39895 ft | 457 kts | 358° |
| 2026-04-26 19:02 | 2.29029 | -52.67098 | 39896 ft | 456 kts | 358° |
| 2026-04-26 19:03 | 2.36412 | -52.67651 | 39893 ft | 456 kts | 358° |
| 2026-04-26 19:03 | 2.42728 | -52.68124 | 39894 ft | 456 kts | 358° |
| 2026-04-26 19:04 | 2.49072 | -52.68600 | 39893 ft | 456 kts | 358° |
| 2026-04-26 19:04 | 2.55410 | -52.69075 | 39890 ft | 456 kts | 358° |
| 2026-04-26 19:05 | 2.64890 | -52.69785 | 39891 ft | 455 kts | 358° |
| 2026-04-26 19:06 | 2.71174 | -52.70256 | 39890 ft | 455 kts | 358° |
| 2026-04-26 19:06 | 2.77499 | -52.70731 | 39888 ft | 455 kts | 358° |
| 2026-04-26 19:07 | 2.83826 | -52.71205 | 39883 ft | 455 kts | 358° |
| 2026-04-26 19:07 | 2.90166 | -52.71681 | 39885 ft | 455 kts | 358° |
| 2026-04-26 19:08 | 2.96453 | -52.72152 | 39888 ft | 456 kts | 358° |
| 2026-04-26 19:08 | 3.02776 | -52.72626 | 39891 ft | 456 kts | 358° |
| 2026-04-26 19:09 | 3.09115 | -52.73102 | 39886 ft | 456 kts | 358° |
| 2026-04-26 19:09 | 3.15457 | -52.73577 | 39402 ft | 463 kts | 358° |
| 2026-04-26 19:09 | 3.18668 | -52.73818 | 38786 ft | 461 kts | 358° |
| 2026-04-26 19:10 | 3.21842 | -52.74056 | 38045 ft | 462 kts | 358° |
| 2026-04-26 19:10 | 3.25086 | -52.74300 | 37266 ft | 461 kts | 358° |
| 2026-04-26 19:10 | 3.28285 | -52.74540 | 36537 ft | 461 kts | 358° |
| 2026-04-26 19:10 | 3.31478 | -52.74780 | 35798 ft | 461 kts | 358° |
| 2026-04-26 19:11 | 3.34659 | -52.75018 | 34943 ft | 465 kts | 358° |
| 2026-04-26 19:11 | 3.37890 | -52.75260 | 34066 ft | 468 kts | 358° |
| 2026-04-26 19:11 | 3.41162 | -52.75505 | 33059 ft | 472 kts | 358° |
| 2026-04-26 19:11 | 3.44449 | -52.75751 | 32092 ft | 475 kts | 358° |
| 2026-04-26 19:12 | 3.47738 | -52.75998 | 31073 ft | 478 kts | 358° |
| 2026-04-26 19:12 | 3.51084 | -52.76249 | 30005 ft | 481 kts | 358° |
| 2026-04-26 19:12 | 3.54420 | -52.76500 | 28754 ft | 485 kts | 358° |
| 2026-04-26 19:12 | 3.57792 | -52.76754 | 27936 ft | 478 kts | 358° |
| 2026-04-26 19:13 | 3.61033 | -52.77000 | 27124 ft | 472 kts | 358° |
| 2026-04-26 19:13 | 3.64343 | -52.77250 | 26313 ft | 466 kts | 359° |
| 2026-04-26 19:13 | 3.67503 | -52.77489 | 25517 ft | 461 kts | 359° |
| 2026-04-26 19:13 | 3.70745 | -52.77733 | 24703 ft | 456 kts | 359° |
| 2026-04-26 19:14 | 3.73860 | -52.77967 | 23913 ft | 452 kts | 359° |
| 2026-04-26 19:14 | 3.76988 | -52.78201 | 23053 ft | 449 kts | 359° |
| 2026-04-26 19:14 | 3.80089 | -52.78434 | 22195 ft | 443 kts | 359° |
| 2026-04-26 19:14 | 3.82157 | -52.78589 | 21658 ft | 439 kts | 359° |
| 2026-04-26 19:15 | 3.86121 | -52.78887 | 20641 ft | 432 kts | 359° |
| 2026-04-26 19:15 | 3.89129 | -52.79113 | 19854 ft | 427 kts | 358° |
| 2026-04-26 19:15 | 3.92065 | -52.79334 | 19094 ft | 422 kts | 358° |
| 2026-04-26 19:15 | 3.94999 | -52.79554 | 18323 ft | 419 kts | 358° |
| 2026-04-26 19:16 | 3.97894 | -52.79771 | 17480 ft | 415 kts | 358° |
| 2026-04-26 19:16 | 4.00738 | -52.79985 | 16715 ft | 409 kts | 358° |
| 2026-04-26 19:16 | 4.03585 | -52.80199 | 15963 ft | 404 kts | 358° |
| 2026-04-26 19:16 | 4.06374 | -52.80409 | 15225 ft | 399 kts | 358° |
| 2026-04-26 19:17 | 4.09095 | -52.80613 | 14494 ft | 395 kts | 358° |
| 2026-04-26 19:17 | 4.11804 | -52.80816 | 13778 ft | 392 kts | 358° |
| 2026-04-26 19:17 | 4.14511 | -52.81020 | 12966 ft | 388 kts | 358° |
| 2026-04-26 19:17 | 4.17212 | -52.81222 | 12219 ft | 384 kts | 358° |
| 2026-04-26 19:18 | 4.19868 | -52.81422 | 11504 ft | 379 kts | 358° |
| 2026-04-26 19:18 | 4.22455 | -52.81616 | 10823 ft | 374 kts | 358° |
| 2026-04-26 19:18 | 4.25004 | -52.81809 | 10579 ft | 358 kts | 358° |
| 2026-04-26 19:18 | 4.27452 | -52.81994 | 10398 ft | 342 kts | 358° |
| 2026-04-26 19:19 | 4.29771 | -52.82170 | 10251 ft | 327 kts | 358° |
| 2026-04-26 19:19 | 4.31982 | -52.82057 | 10096 ft | 310 kts | 17° |
| 2026-04-26 19:19 | 4.33854 | -52.81242 | 9952 ft | 294 kts | 36° |
| 2026-04-26 19:19 | 4.35526 | -52.80032 | 9642 ft | 288 kts | 40° |
| 2026-04-26 19:20 | 4.37069 | -52.78833 | 9292 ft | 285 kts | 40° |
| 2026-04-26 19:20 | 4.38131 | -52.77998 | 9050 ft | 283 kts | 40° |
| 2026-04-26 19:20 | 4.40170 | -52.76394 | 8612 ft | 280 kts | 40° |
| 2026-04-26 19:20 | 4.41677 | -52.75215 | 8281 ft | 277 kts | 40° |
| 2026-04-26 19:21 | 4.43222 | -52.74011 | 7933 ft | 275 kts | 40° |
| 2026-04-26 19:21 | 4.44731 | -52.72839 | 7606 ft | 273 kts | 40° |
| 2026-04-26 19:21 | 4.46215 | -52.71688 | 7286 ft | 271 kts | 40° |
| 2026-04-26 19:21 | 4.47714 | -52.70528 | 6956 ft | 269 kts | 40° |
| 2026-04-26 19:22 | 4.49162 | -52.69407 | 6640 ft | 268 kts | 40° |
| 2026-04-26 19:22 | 4.50648 | -52.68259 | 6320 ft | 266 kts | 40° |
| 2026-04-26 19:22 | 4.52099 | -52.67138 | 5978 ft | 265 kts | 39° |
| 2026-04-26 19:22 | 4.53690 | -52.66197 | 5647 ft | 266 kts | 23° |
| 2026-04-26 19:23 | 4.55422 | -52.65573 | 5330 ft | 263 kts | 22° |
| 2026-04-26 19:23 | 4.57144 | -52.64952 | 5022 ft | 261 kts | 22° |
| 2026-04-26 19:23 | 4.58850 | -52.64340 | 4716 ft | 259 kts | 23° |
| 2026-04-26 19:23 | 4.60537 | -52.63744 | 4387 ft | 254 kts | 21° |
| 2026-04-26 19:24 | 4.62173 | -52.63156 | 4025 ft | 246 kts | 22° |
| 2026-04-26 19:24 | 4.63743 | -52.62592 | 3711 ft | 235 kts | 22° |
| 2026-04-26 19:24 | 4.66676 | -52.61537 | 3237 ft | 215 kts | 23° |
| 2026-04-26 19:25 | 4.68041 | -52.61050 | 3058 ft | 208 kts | 22° |
| 2026-04-26 19:25 | 4.68498 | -52.60888 | 3037 ft | 203 kts | 23° |
| 2026-04-26 19:25 | 4.70744 | -52.59999 | 2962 ft | 204 kts | 39° |
| 2026-04-26 19:25 | 4.71509 | -52.58875 | 2984 ft | 194 kts | 67° |
| 2026-04-26 19:26 | 4.72062 | -52.57708 | 2983 ft | 180 kts | 64° |
| 2026-04-26 19:26 | 4.72602 | -52.56604 | 2973 ft | 169 kts | 64° |
| 2026-04-26 19:26 | 4.73104 | -52.55539 | 2976 ft | 170 kts | 66° |
| 2026-04-26 19:26 | 4.73603 | -52.54462 | 2990 ft | 172 kts | 66° |
| 2026-04-26 19:27 | 4.74104 | -52.53371 | 2981 ft | 171 kts | 65° |
| 2026-04-26 19:27 | 4.74592 | -52.52307 | 2966 ft | 168 kts | 65° |
| 2026-04-26 19:27 | 4.75087 | -52.51228 | 2818 ft | 174 kts | 66° |
| 2026-04-26 19:27 | 4.75584 | -52.50141 | 2621 ft | 171 kts | 66° |
| 2026-04-26 19:28 | 4.76076 | -52.49067 | 2429 ft | 165 kts | 66° |
| 2026-04-26 19:28 | 4.76540 | -52.48052 | 2222 ft | 161 kts | 64° |
| 2026-04-26 19:28 | 4.77010 | -52.47028 | 2025 ft | 164 kts | 66° |
| 2026-04-26 19:28 | 4.77496 | -52.45966 | 1789 ft | 163 kts | 64° |
| 2026-04-26 19:29 | 4.77944 | -52.44986 | 1623 ft | 149 kts | 63° |
| 2026-04-26 19:29 | 4.78362 | -52.44075 | 1409 ft | 140 kts | 63° |
| 2026-04-26 19:29 | 4.78751 | -52.43227 | 1246 ft | 136 kts | 63° |
| 2026-04-26 19:29 | 4.79153 | -52.42349 | 1080 ft | 139 kts | 63° |
| 2026-04-26 19:30 | 4.79561 | -52.41462 | 909 ft | 142 kts | 66° |
| 2026-04-26 19:30 | 4.79978 | -52.40552 | 725 ft | 142 kts | 65° |
| 2026-04-26 19:30 | 4.80383 | -52.39666 | 551 ft | 142 kts | 67° |
| 2026-04-26 19:30 | 4.80667 | -52.39043 | 444 ft | 145 kts | 65° |
| 2026-04-26 19:31 | 4.81213 | -52.37828 | 176 ft | 135 kts | 65° |
| 2026-04-26 19:31 | 4.81585 | -52.37026 | 38 ft | 117 kts | 67° |
| 2026-04-26 19:31 | 4.81868 | -52.36419 | 28 ft | 70 kts | 67° |
| 2026-04-26 19:31 | 4.81939 | -52.36253 | 28 ft | 3 kts | 65° |
| 2026-04-26 19:32 | 4.81964 | -52.36219 | 28 ft | 7 kts | 34° |
| 2026-04-26 19:32 | 4.81989 | -52.36218 | 28 ft | 2 kts | 332° |
| 2026-04-26 19:32 | 4.82010 | -52.36230 | 28 ft | 5 kts | 332° |
| 2026-04-26 19:32 | 4.82053 | -52.36252 | 28 ft | 9 kts | 336° |
| 2026-04-26 19:33 | 4.82098 | -52.36277 | 28 ft | 3 kts | 298° |
| 2026-04-26 19:33 | 4.82093 | -52.36295 | 28 ft | 4 kts | 243° |
| 2026-04-26 19:33 | 4.82076 | -52.36331 | 28 ft | 8 kts | 245° |
| 2026-04-26 19:33 | 4.82048 | -52.36393 | 28 ft | 12 kts | 246° |
| 2026-04-26 19:34 | 4.82028 | -52.36449 | 28 ft | 1 kts | 278° |
| 2026-04-26 19:34 | 4.82037 | -52.36455 | 28 ft | 3 kts | 330° |
| 2026-04-26 19:34 | 4.82065 | -52.36467 | 28 ft | 5 kts | 338° |
| 2026-04-26 19:34 | 4.82097 | -52.36481 | 28 ft | 0 kts | 335° |